Time;durP1;ratioP1;P1;durP2;ratioP2;P2;SDS_P1;SDS_P2;PMS_P1;PMS_P2;Temp;Humidity;BMP_temperature;BMP_pressure;BME280_temperature;BME280_humidity;BME280_pressure;Samples;Min_cycle;Max_cycle;Signal;HPM_P1;HPM_P2
2022/01/02 00:01:13;;;;;;;7.03;6.33;;;;;;;12.24;74.98;95399.13;4990927;28;20207;-76
2022/01/02 00:03:45;;;;;;;8.03;7.20;;;;;;;12.31;74.93;95409.69;4989998;28;20635;-77
2022/01/02 00:06:14;;;;;;;8.30;6.37;;;;;;;12.34;74.91;95403.47;4991074;28;20204;-76
2022/01/02 00:08:50;;;;;;;6.70;6.03;;;;;;;11.86;74.77;95330.56;4990255;28;20193;-76
2022/01/02 00:11:23;;;;;;;7.53;6.50;;;;;;;12.39;74.84;95411.56;4990665;28;20212;-78
2022/01/02 00:13:55;;;;;;;8.33;7.13;;;;;;;12.41;74.74;95415.63;4990625;28;20216;-76
2022/01/02 00:16:22;;;;;;;8.00;6.97;;;;;;;12.43;74.90;95411.16;4990440;28;20201;-77
2022/01/02 00:19:03;;;;;;;7.23;6.53;;;;;;;12.44;74.77;95419.69;4972925;28;20200;-76
2022/01/02 00:21:38;;;;;;;8.20;6.97;;;;;;;12.26;74.69;95389.56;4990491;28;20207;-75
2022/01/02 00:24:14;;;;;;;7.67;6.77;;;;;;;12.35;74.82;95400.78;4990208;28;20196;-76
2022/01/02 00:26:49;;;;;;;8.97;6.73;;;;;;;12.48;74.81;95414.19;4990846;28;20189;-77
2022/01/02 00:29:18;;;;;;;7.47;6.60;;;;;;;12.51;74.73;95410.53;4990612;28;20196;-77
2022/01/02 00:31:50;;;;;;;7.17;6.47;;;;;;;12.19;74.68;95360.25;4989387;28;20220;-76
2022/01/02 00:34:20;;;;;;;7.60;6.80;;;;;;;12.52;74.79;95412.97;4990334;28;20196;-76
2022/01/02 00:36:47;;;;;;;7.57;6.80;;;;;;;12.54;74.65;95410.25;4990265;28;20197;-76
2022/01/02 00:39:17;;;;;;;8.23;6.80;;;;;;;12.55;74.48;95412.69;4990246;28;20216;-76
2022/01/02 00:41:48;;;;;;;8.20;7.40;;;;;;;12.57;74.67;95415.16;4990282;28;20196;-77
2022/01/02 00:44:25;;;;;;;7.60;6.80;;;;;;;12.58;74.60;95411.63;4990328;28;20201;-78
2022/01/02 00:46:59;;;;;;;8.43;6.93;;;;;;;12.59;74.52;95412.44;4990002;28;20201;-76
2022/01/02 00:49:27;;;;;;;8.63;6.77;;;;;;;12.45;74.54;95386.22;4973659;28;20200;-76
2022/01/02 00:52:03;;;;;;;8.47;7.03;;;;;;;12.62;74.54;95415.56;4989998;28;20225;-77
2022/01/02 00:54:35;;;;;;;8.63;7.10;;;;;;;12.62;74.41;95410.41;4989808;28;20200;-78
2022/01/02 00:57:10;;;;;;;7.47;6.77;;;;;;;12.63;74.30;95417.16;4973006;28;20197;-76
2022/01/02 00:59:58;;;;;;;7.60;6.90;;;;;;;12.62;74.47;95407.84;4989831;28;20189;-77
2022/01/02 01:02:30;;;;;;;7.60;6.80;;;;;;;12.53;74.52;95395.81;4998728;28;20287;-76
2022/01/02 01:05:01;;;;;;;6.97;6.27;;;;;;;12.46;74.24;95384.44;4992493;28;20196;-78
2022/01/02 01:07:29;;;;;;;7.77;6.73;;;;;;;12.65;74.22;95417.88;5009215;28;20579;-76
2022/01/02 01:10:02;;;;;;;6.60;6.00;;;;;;;12.66;74.28;95419.47;5011942;28;20197;-76
2022/01/02 01:12:29;;;;;;;6.60;5.90;;;;;;;12.67;74.22;95418.53;5012886;28;20746;-76
2022/01/02 01:14:57;;;;;;;7.47;6.67;;;;;;;12.48;74.18;95393.66;5013058;28;20197;-75
2022/01/02 01:17:26;;;;;;;9.93;8.93;;;;;;;12.70;74.14;95422.59;5012743;28;20678;-78
2022/01/02 01:22:36;;;;;;;12.43;10.60;;;;;;;12.70;74.13;95431.09;5012740;28;20196;-76
2022/01/02 01:25:12;;;;;;;11.93;10.50;;;;;;;12.71;74.10;95419.88;4995948;28;20212;-77
2022/01/02 01:27:39;;;;;;;11.23;9.80;;;;;;;12.71;73.80;95417.31;5012552;28;20719;-78
2022/01/02 01:30:11;;;;;;;11.53;9.63;;;;;;;12.71;73.88;95414.75;5012811;28;20641;-76
2022/01/02 01:32:39;;;;;;;11.00;9.50;;;;;;;12.71;73.74;95414.75;5012926;28;20223;-76
2022/01/02 01:35:07;;;;;;;11.03;9.93;;;;;;;12.71;73.74;95409.63;4995166;28;20695;-75
2022/01/02 01:37:38;;;;;;;12.87;10.23;;;;;;;12.72;73.75;95403.53;5012455;28;20196;-76
2022/01/02 01:40:13;;;;;;;10.63;9.50;;;;;;;12.58;73.73;95385.16;5012798;28;20756;-76
2022/01/02 01:42:44;;;;;;;9.77;8.77;;;;;;;12.69;73.70;95403.00;5012916;28;20195;-75
2022/01/02 01:45:30;;;;;;;11.10;9.27;;;;;;;12.54;73.70;95382.84;5012648;28;20628;-78
2022/01/02 01:47:59;;;;;;;11.70;8.40;;;;;;;12.65;73.60;95396.50;5012617;28;20204;-76
2022/01/02 01:50:32;;;;;;;10.17;9.10;;;;;;;12.74;73.73;95413.69;4995093;28;20204;-75
2022/01/02 01:53:00;;;;;;;9.97;8.93;;;;;;;12.75;73.46;95416.13;5012771;28;20212;-76
2022/01/02 01:55:29;;;;;;;9.57;8.57;;;;;;;12.72;73.41;95407.88;5012522;28;20193;-77
2022/01/02 01:57:58;;;;;;;8.63;7.77;;;;;;;12.76;73.46;95420.28;5012245;28;20196;-75
2022/01/02 02:00:28;;;;;;;8.33;7.43;;;;;;;12.76;73.48;95412.59;5012415;28;20683;-76
2022/01/02 02:03:01;;;;;;;8.43;7.53;;;;;;;12.65;73.61;95393.94;5012392;28;20188;-77
2022/01/02 02:05:31;;;;;;;8.43;7.63;;;;;;;12.21;73.47;95319.88;5012032;28;20695;-75
2022/01/02 02:07:59;;;;;;;8.73;7.93;;;;;;;12.77;73.28;95414.22;4994913;28;20192;-77
2022/01/02 02:10:38;;;;;;;8.20;7.43;;;;;;;12.67;73.23;95385.16;4994476;28;20196;-77
2022/01/02 02:13:06;;;;;;;7.93;7.10;;;;;;;12.78;73.40;95408.16;4994637;28;20250;-76
2022/01/02 02:15:34;;;;;;;7.27;6.57;;;;;;;12.79;73.28;95411.53;4994180;28;20196;-76
2022/01/02 02:18:02;;;;;;;7.63;6.83;;;;;;;12.72;73.35;95390.69;4994629;28;20197;-77
2022/01/02 02:20:33;;;;;;;7.43;6.60;;;;;;;12.74;73.07;95395.72;5012046;28;20204;-76
2022/01/02 02:23:02;;;;;;;7.23;6.53;;;;;;;12.80;73.23;95408.81;5011948;28;20279;-76
2022/01/02 02:25:31;;;;;;;7.10;6.40;;;;;;;12.62;73.02;95371.13;5011706;28;20189;-76
2022/01/02 02:28:01;;;;;;;8.67;6.40;;;;;;;12.80;73.04;95398.56;5011957;28;20188;-77
2022/01/02 02:30:31;;;;;;;6.83;6.23;;;;;;;12.58;73.05;95373.13;4994712;28;20188;-79
2022/01/02 02:33:00;;;;;;;6.93;6.27;;;;;;;12.81;73.10;95405.28;4993770;28;20235;-76
2022/01/02 02:35:28;;;;;;;6.60;6.00;;;;;;;12.81;73.13;95410.44;5011894;28;20192;-76
2022/01/02 02:38:00;;;;;;;7.83;6.70;;;;;;;12.83;72.84;95404.38;5010863;28;20203;-76
2022/01/02 02:40:30;;;;;;;6.33;5.70;;;;;;;12.83;72.97;95404.38;5011711;28;20189;-76
2022/01/02 02:43:02;;;;;;;6.20;5.60;;;;;;;12.74;73.03;95396.53;4993687;28;20214;-76
2022/01/02 02:51:11;;;;;;;6.30;5.70;;;;;;;12.73;72.99;95394.06;5011099;28;20748;-76
2022/01/02 02:53:43;;;;;;;6.17;5.60;;;;;;;12.80;72.93;95406.25;5011591;28;20262;-75
2022/01/02 02:56:16;;;;;;;6.33;5.73;;;;;;;12.70;72.74;95390.03;5011331;28;20200;-75
2022/01/02 02:58:43;;;;;;;6.40;5.80;;;;;;;12.81;72.66;95417.31;5011248;28;20254;-76
2022/01/02 03:01:12;;;;;;;6.17;5.57;;;;;;;12.82;72.95;95411.25;5010962;28;20549;-75
2022/01/02 03:03:40;;;;;;;6.10;5.50;;;;;;;12.80;72.75;95418.28;5010988;28;20664;-76
2022/01/02 03:06:10;;;;;;;6.07;5.53;;;;;;;12.79;72.76;95420.03;5012093;28;20197;-76
2022/01/02 03:08:41;;;;;;;6.90;6.00;;;;;;;12.65;72.55;95401.63;4994572;28;20196;-76
2022/01/02 03:11:16;;;;;;;10.27;6.63;;;;;;;12.84;72.68;95431.66;5011005;28;20224;-78
2022/01/02 03:13:47;;;;;;;7.10;6.40;;;;;;;12.76;72.64;95422.06;4976831;28;20231;-76
2022/01/02 03:16:15;;;;;;;6.80;6.13;;;;;;;12.83;72.59;95428.28;5010609;28;20192;-76
2022/01/02 03:18:42;;;;;;;6.87;6.17;;;;;;;12.85;72.51;95439.22;5010838;28;20184;-76
2022/01/02 03:21:09;;;;;;;6.67;5.93;;;;;;;12.71;72.30;95414.75;5010644;28;20181;-77
2022/01/02 03:23:36;;;;;;;7.20;6.20;;;;;;;12.84;72.42;95432.47;5010755;28;20200;-76
2022/01/02 03:26:04;;;;;;;6.43;5.83;;;;;;;12.85;72.39;95434.09;5010621;28;20203;-75
2022/01/02 03:28:33;;;;;;;5.53;4.97;;;;;;;12.82;72.31;95429.22;5011075;28;20604;-76
2022/01/02 03:31:00;;;;;;;6.33;5.73;;;;;;;12.80;72.28;95433.69;5009570;28;20196;-76
2022/01/02 03:33:28;;;;;;;6.17;5.57;;;;;;;12.75;72.31;95415.31;5010880;28;20232;-77
2022/01/02 03:35:58;;;;;;;6.93;6.23;;;;;;;12.87;72.31;95433.97;5011083;28;20207;-77
2022/01/02 03:38:28;;;;;;;6.57;5.63;;;;;;;12.80;72.25;95425.97;5011076;28;20204;-77
2022/01/02 03:40:56;;;;;;;8.30;6.00;;;;;;;12.88;72.31;95433.84;5010054;28;20227;-79
2022/01/02 03:43:26;;;;;;;6.83;5.50;;;;;;;12.87;72.22;95436.53;5010721;28;20204;-78
2022/01/02 03:45:56;;;;;;;5.80;5.23;;;;;;;12.73;72.28;95404.34;5009638;28;20196;-78
2022/01/02 03:48:27;;;;;;;5.97;5.37;;;;;;;12.73;72.30;95410.28;5010292;28;20204;-80
2022/01/02 03:50:54;;;;;;;7.53;5.70;;;;;;;12.88;72.15;95436.41;5010122;28;20223;-76
2022/01/02 03:53:24;;;;;;;5.70;5.07;;;;;;;12.87;72.12;95431.41;4976981;28;20638;-76
2022/01/02 03:55:52;;;;;;;6.67;5.93;;;;;;;12.86;72.25;95430.56;5010688;28;20671;-77
2022/01/02 03:58:20;;;;;;;5.63;5.13;;;;;;;12.86;72.24;95429.75;5010075;28;20200;-79
2022/01/02 04:00:47;;;;;;;5.00;4.50;;;;;;;12.85;72.12;95425.56;5010346;28;20648;-79
2022/01/02 04:03:16;;;;;;;5.83;5.23;;;;;;;12.76;72.16;95425.44;4992437;28;20257;-77
2022/01/02 04:05:45;;;;;;;5.80;5.23;;;;;;;12.64;72.35;95407.72;4993039;28;20196;-80
2022/01/02 04:08:13;;;;;;;6.67;5.97;;;;;;;12.81;72.23;95430.16;5010075;28;20188;-77
2022/01/02 04:10:40;;;;;;;5.77;5.27;;;;;;;12.79;72.26;95440.56;4992573;28;20726;-77
2022/01/02 04:13:07;;;;;;;7.90;5.67;;;;;;;12.74;72.38;95431.66;4992649;28;20219;-76
2022/01/02 04:15:34;;;;;;;5.90;5.30;;;;;;;12.71;72.24;95435.28;5010323;28;20286;-77
2022/01/02 04:18:01;;;;;;;7.40;5.90;;;;;;;12.76;72.32;95458.00;5009749;28;20251;-76
2022/01/02 04:20:30;;;;;;;5.80;4.87;;;;;;;12.76;72.51;95463.13;5010143;28;20622;-76
2022/01/02 04:22:57;;;;;;;5.87;5.20;;;;;;;12.75;72.43;95457.19;5009581;28;20200;-76
2022/01/02 04:25:24;;;;;;;6.20;5.40;;;;;;;12.74;72.58;95457.31;5010338;28;20196;-77
2022/01/02 04:27:51;;;;;;;5.87;5.37;;;;;;;12.24;72.49;95386.28;5009615;28;20532;-75
2022/01/02 04:30:17;;;;;;;6.17;5.27;;;;;;;12.67;72.66;95453.66;5010452;28;20188;-75
2022/01/02 04:32:44;;;;;;;6.13;5.53;;;;;;;12.73;72.64;95460.81;5009689;28;20220;-76
2022/01/02 04:35:11;;;;;;;6.10;5.50;;;;;;;12.73;72.73;95458.25;5009999;28;20852;-76
2022/01/02 04:37:40;;;;;;;6.27;5.60;;;;;;;12.73;72.70;95465.94;5009877;28;20193;-77
2022/01/02 04:40:08;;;;;;;5.70;5.20;;;;;;;12.65;72.81;95453.78;5009464;28;20192;-77
2022/01/02 04:42:35;;;;;;;5.93;5.43;;;;;;;12.70;72.90;95456.78;4992699;28;20672;-78
2022/01/02 04:45:02;;;;;;;6.20;5.37;;;;;;;12.50;72.62;95421.72;5012935;28;20189;-77
2022/01/02 04:47:29;;;;;;;6.10;5.47;;;;;;;12.56;72.98;95439.16;5014149;28;20199;-76
2022/01/02 04:49:56;;;;;;;6.63;5.10;;;;;;;12.68;72.78;95466.34;5014303;28;20189;-77
2022/01/02 04:52:23;;;;;;;6.20;5.60;;;;;;;12.62;72.99;95463.50;5014069;28;20228;-77
2022/01/02 04:54:55;;;;;;;6.03;5.43;;;;;;;12.67;73.08;95469.03;4996965;28;20200;-78
2022/01/02 04:57:22;;;;;;;5.53;4.70;;;;;;;12.58;73.16;95452.69;4996430;28;20207;-77
2022/01/02 04:59:51;;;;;;;6.27;5.67;;;;;;;12.58;72.64;95462.13;5013798;28;20192;-77
2022/01/02 05:02:19;;;;;;;7.60;5.67;;;;;;;12.64;73.04;95480.38;5013833;28;20541;-78
2022/01/02 05:04:47;;;;;;;6.00;4.97;;;;;;;12.65;73.08;95468.34;5013473;28;20600;-77
2022/01/02 05:07:16;;;;;;;7.37;5.43;;;;;;;12.62;73.06;95463.50;5013705;28;20203;-77
2022/01/02 05:09:47;;;;;;;5.70;5.13;;;;;;;12.60;73.32;95463.63;5013136;28;20188;-78
2022/01/02 05:12:16;;;;;;;6.30;5.70;;;;;;;12.38;73.10;95423.59;5013797;28;20189;-75
2022/01/02 05:14:43;;;;;;;6.73;5.77;;;;;;;12.65;73.10;95470.91;5012405;28;20220;-76
2022/01/02 05:17:11;;;;;;;6.07;5.30;;;;;;;12.65;73.51;95464.06;5012855;28;20192;-76
2022/01/02 05:19:38;;;;;;;5.97;5.33;;;;;;;12.65;73.34;95456.34;5012604;28;20275;-76
2022/01/02 05:22:06;;;;;;;5.57;5.00;;;;;;;12.65;73.41;95464.06;5012760;28;20195;-76
2022/01/02 05:24:33;;;;;;;6.43;5.80;;;;;;;12.65;73.35;95465.78;5013453;28;20203;-76
2022/01/02 05:27:01;;;;;;;6.10;5.50;;;;;;;12.41;73.14;95422.53;5012438;28;20200;-76
2022/01/02 05:29:29;;;;;;;6.63;5.93;;;;;;;12.67;73.36;95469.03;5013017;28;20192;-76
2022/01/02 05:31:56;;;;;;;6.03;5.43;;;;;;;12.68;73.25;95468.09;5012561;28;20196;-76
2022/01/02 05:34:24;;;;;;;7.27;6.13;;;;;;;12.37;73.27;95426.28;5012956;28;20220;-75
2022/01/02 05:36:51;;;;;;;6.33;5.73;;;;;;;12.59;73.50;95461.19;5012596;28;20199;-75
2022/01/02 05:39:18;;;;;;;6.10;5.47;;;;;;;12.67;73.41;95474.97;5013009;28;20195;-76
2022/01/02 05:41:50;;;;;;;7.23;5.93;;;;;;;12.67;73.40;95476.75;5012705;28;20203;-75
2022/01/02 05:44:18;;;;;;;6.27;5.30;;;;;;;12.62;73.51;95472.00;5012653;28;20250;-78
2022/01/02 05:46:57;;;;;;;5.50;5.00;;;;;;;12.44;73.44;95440.22;5012281;28;20200;-76
2022/01/02 05:49:30;;;;;;;9.17;5.20;;;;;;;12.19;73.34;95403.03;5012813;28;20192;-76
2022/01/02 05:51:56;;;;;;;5.73;5.23;;;;;;;12.30;73.22;95424.25;5012222;28;20219;-76
2022/01/02 05:54:23;;;;;;;6.00;5.43;;;;;;;12.70;73.38;95484.19;5012114;28;20607;-77
2022/01/02 05:56:51;;;;;;;5.90;5.17;;;;;;;12.71;73.28;95486.63;5012577;28;20200;-76
2022/01/02 05:59:19;;;;;;;6.63;5.23;;;;;;;12.71;73.25;95476.34;5012466;28;20223;-76
2022/01/02 06:01:47;;;;;;;5.90;5.30;;;;;;;12.73;73.39;95483.91;4994846;28;20200;-76
2022/01/02 06:04:15;;;;;;;6.23;5.40;;;;;;;12.73;73.11;95491.59;5012292;28;20192;-76
2022/01/02 06:06:44;;;;;;;5.27;4.77;;;;;;;12.74;73.29;95491.50;5011958;28;20196;-77
2022/01/02 06:09:12;;;;;;;5.90;5.13;;;;;;;12.75;73.15;95487.97;5012280;28;20196;-78
2022/01/02 06:11:39;;;;;;;5.20;4.63;;;;;;;12.68;73.19;95483.50;5012135;28;20181;-76
2022/01/02 06:14:08;;;;;;;6.40;5.27;;;;;;;12.77;73.13;95491.22;5011727;28;20326;-76
2022/01/02 06:16:36;;;;;;;5.13;4.63;;;;;;;12.79;73.09;95494.47;5011583;28;20223;-76
2022/01/02 06:19:03;;;;;;;5.83;5.23;;;;;;;12.74;73.03;95485.56;5012094;28;20200;-76
2022/01/02 06:21:32;;;;;;;7.87;5.40;;;;;;;12.83;72.87;95500.16;5011893;28;20200;-75
2022/01/02 06:24:01;;;;;;;5.77;5.20;;;;;;;12.76;72.89;95497.28;4994161;28;20211;-75
2022/01/02 06:26:29;;;;;;;8.83;5.00;;;;;;;12.86;72.84;95511.91;5012270;28;20196;-76
2022/01/02 06:28:57;;;;;;;5.67;4.90;;;;;;;12.81;72.93;95500.28;5011768;28;20627;-76
2022/01/02 06:31:24;;;;;;;6.87;5.03;;;;;;;12.89;72.82;95514.22;5011735;28;20287;-77
2022/01/02 06:33:52;;;;;;;8.63;5.50;;;;;;;12.92;72.63;95521.66;4993889;28;20282;-76
2022/01/02 06:36:19;;;;;;;8.30;5.33;;;;;;;12.94;72.55;95515.44;4994794;28;20195;-77
2022/01/02 06:38:49;;;;;;;5.40;4.90;;;;;;;12.98;72.67;95518.56;4993911;28;20188;-76
2022/01/02 06:41:17;;;;;;;5.43;4.90;;;;;;;12.94;72.51;95507.75;5011832;28;20567;-75
2022/01/02 06:43:51;;;;;;;5.50;5.00;;;;;;;12.90;72.34;95495.28;5011488;28;20188;-77
2022/01/02 06:46:19;;;;;;;7.37;4.67;;;;;;;12.99;72.29;95507.34;5011393;28;20280;-77
2022/01/02 06:48:46;;;;;;;5.10;4.60;;;;;;;13.02;72.14;95515.59;5011353;28;20191;-77
2022/01/02 06:51:13;;;;;;;5.03;4.57;;;;;;;13.12;72.15;95527.63;4994014;28;20240;-77
2022/01/02 06:53:41;;;;;;;5.27;4.70;;;;;;;13.16;71.88;95529.81;5011282;28;20227;-77
2022/01/02 06:56:11;;;;;;;5.30;4.80;;;;;;;13.19;71.95;95536.44;5011358;28;20219;-76
2022/01/02 06:58:40;;;;;;;6.23;4.80;;;;;;;13.12;71.81;95517.38;4993767;28;20207;-77
2022/01/02 07:01:07;;;;;;;6.13;4.43;;;;;;;13.26;71.76;95540.97;5011120;28;20262;-78
2022/01/02 07:03:37;;;;;;;5.73;4.70;;;;;;;13.22;71.58;95533.63;5011252;28;20222;-76
2022/01/02 07:06:06;;;;;;;5.10;4.60;;;;;;;13.33;71.51;95535.28;5010953;28;20649;-77
2022/01/02 07:08:37;;;;;;;6.97;4.63;;;;;;;13.36;71.42;95535.00;4993886;28;20188;-79
2022/01/02 07:11:05;;;;;;;5.33;4.27;;;;;;;13.39;71.46;95537.31;5011720;28;20197;-76
2022/01/02 07:13:34;;;;;;;4.80;4.33;;;;;;;13.34;71.31;95526.63;4993539;28;20310;-77
2022/01/02 07:16:03;;;;;;;5.43;4.60;;;;;;;13.44;71.12;95543.69;4993540;28;20207;-78
2022/01/02 07:18:30;;;;;;;4.80;4.37;;;;;;;13.47;71.21;95548.56;5011005;28;20626;-77
2022/01/02 07:20:58;;;;;;;5.47;4.60;;;;;;;13.42;71.06;95534.47;5010757;28;20196;-77
2022/01/02 07:23:27;;;;;;;6.23;4.53;;;;;;;13.39;71.16;95529.63;5010736;28;20207;-77
2022/01/02 07:25:55;;;;;;;6.17;4.60;;;;;;;13.41;70.91;95538.78;4993327;28;20203;-79
2022/01/02 07:28:22;;;;;;;5.30;4.47;;;;;;;13.38;70.94;95525.41;5011037;28;20188;-75
2022/01/02 07:30:53;;;;;;;5.17;4.20;;;;;;;13.57;70.97;95556.25;5010795;28;20200;-77
2022/01/02 07:33:22;;;;;;;5.40;4.40;;;;;;;13.44;70.63;95535.16;5010746;28;20553;-78
2022/01/02 07:35:53;;;;;;;5.13;4.50;;;;;;;13.61;70.84;95561.94;5010896;28;20192;-76
2022/01/02 07:38:24;;;;;;;4.33;4.03;;;;;;;13.63;70.74;95562.63;5010651;28;20195;-78
2022/01/02 07:40:51;;;;;;;4.47;4.07;;;;;;;13.61;70.67;95556.81;4978519;28;20184;-77
2022/01/02 07:43:19;;;;;;;5.37;4.30;;;;;;;13.64;70.73;95559.09;5010936;28;20207;-78
2022/01/02 07:45:46;;;;;;;6.60;4.87;;;;;;;13.70;70.48;95556.81;5010576;28;20196;-79
2022/01/02 07:48:15;;;;;;;4.63;4.23;;;;;;;13.29;70.50;95484.16;5011036;28;20196;-76
2022/01/02 07:50:42;;;;;;;5.63;4.40;;;;;;;13.80;70.32;95569.66;5010320;28;20199;-77
2022/01/02 07:53:13;;;;;;;5.63;4.60;;;;;;;13.84;70.43;95573.56;5010847;28;20200;-76
2022/01/02 07:55:40;;;;;;;5.33;4.03;;;;;;;13.89;70.16;95566.25;5010441;28;20193;-79
2022/01/02 07:58:09;;;;;;;4.93;4.43;;;;;;;13.95;70.09;95567.50;5010333;28;20196;-77
2022/01/02 08:00:36;;;;;;;4.87;4.47;;;;;;;13.98;70.07;95557.72;5009875;28;20200;-78
2022/01/02 08:03:05;;;;;;;5.93;4.53;;;;;;;14.03;70.00;95555.56;5010623;28;20188;-80
2022/01/02 08:05:37;;;;;;;5.73;4.57;;;;;;;14.10;69.86;95563.53;4992729;28;20200;-80
2022/01/02 08:08:05;;;;;;;5.17;4.67;;;;;;;14.17;69.71;95566.38;4992908;28;20203;-77
2022/01/02 08:10:34;;;;;;;5.77;4.70;;;;;;;14.02;69.75;95527.41;4976955;28;20215;-78
2022/01/02 08:13:02;;;;;;;6.23;5.27;;;;;;;14.04;69.36;95526.31;5010562;28;20665;-79
2022/01/02 08:15:29;;;;;;;7.00;4.90;;;;;;;14.37;69.35;95567.13;5009943;28;20223;-77
2022/01/02 08:17:55;;;;;;;5.67;4.47;;;;;;;14.43;69.15;95559.69;5011809;28;20638;-76
2022/01/02 08:20:22;;;;;;;5.73;4.60;;;;;;;14.42;68.92;95555.50;5014245;28;20181;-77
2022/01/02 08:22:51;;;;;;;4.30;3.90;;;;;;;14.58;68.96;95569.56;5014456;28;20220;-78
2022/01/02 08:25:18;;;;;;;4.50;4.10;;;;;;;14.55;68.54;95566.31;5014549;28;20188;-75
2022/01/02 08:27:45;;;;;;;7.33;4.90;;;;;;;14.60;68.40;95565.91;5014267;28;20207;-76
2022/01/02 08:30:12;;;;;;;5.50;3.90;;;;;;;14.59;68.36;95553.16;5014102;28;20192;-79
2022/01/02 08:32:39;;;;;;;5.03;4.57;;;;;;;14.76;68.00;95578.16;5013655;28;20207;-77
2022/01/02 08:35:07;;;;;;;4.87;4.37;;;;;;;14.81;67.93;95565.69;5013901;28;20259;-77
2022/01/02 08:37:34;;;;;;;5.33;4.37;;;;;;;14.87;67.65;95566.88;5013762;28;20196;-77
2022/01/02 08:40:06;;;;;;;4.67;4.13;;;;;;;14.90;67.61;95558.88;5013981;28;20212;-76
2022/01/02 08:42:32;;;;;;;5.10;4.37;;;;;;;14.75;67.28;95527.63;5013235;28;20196;-75
2022/01/02 08:44:59;;;;;;;6.27;4.83;;;;;;;14.85;67.26;95527.56;5013946;28;20212;-75
2022/01/02 08:47:26;;;;;;;6.00;4.63;;;;;;;15.19;66.90;95571.59;5013551;28;20195;-75
2022/01/02 08:49:53;;;;;;;4.47;4.07;;;;;;;15.26;66.60;95563.13;5013792;28;20196;-76
2022/01/02 08:52:23;;;;;;;5.50;3.97;;;;;;;15.49;66.38;95570.44;5013263;28;20232;-76
2022/01/02 08:54:51;;;;;;;4.80;4.40;;;;;;;15.56;65.97;95548.28;4996190;28;20699;-76
2022/01/02 08:57:21;;;;;;;5.17;4.13;;;;;;;15.80;65.50;95565.75;5013494;28;20188;-76
2022/01/02 08:59:49;;;;;;;4.80;4.30;;;;;;;15.82;65.18;95547.59;5013773;28;20196;-76
2022/01/02 09:02:16;;;;;;;4.27;3.83;;;;;;;16.07;64.78;95571.81;5012950;28;20203;-76
2022/01/02 09:04:47;;;;;;;4.93;4.10;;;;;;;16.21;64.58;95574.66;5013397;28;20646;-77
2022/01/02 09:07:14;;;;;;;4.10;3.70;;;;;;;16.33;64.36;95569.25;4995957;28;20196;-78
2022/01/02 09:09:41;;;;;;;3.93;3.63;;;;;;;16.45;64.08;95568.03;5013449;28;20552;-75
2022/01/02 09:12:09;;;;;;;4.23;3.83;;;;;;;16.54;63.67;95570.53;4995614;28;20199;-75
2022/01/02 09:14:37;;;;;;;3.93;3.53;;;;;;;16.62;63.17;95566.34;5013105;28;20205;-76
2022/01/02 09:17:04;;;;;;;5.00;3.73;;;;;;;16.70;62.77;95566.38;5013163;28;20200;-77
2022/01/02 09:19:31;;;;;;;4.00;3.67;;;;;;;16.79;62.37;95560.31;5012990;28;20192;-77
2022/01/02 09:21:59;;;;;;;4.03;3.63;;;;;;;16.86;62.06;95556.16;5012922;28;20200;-76
2022/01/02 09:24:26;;;;;;;4.40;4.00;;;;;;;16.90;61.60;95541.16;5012770;28;20566;-75
2022/01/02 09:26:54;;;;;;;6.00;3.83;;;;;;;16.98;61.68;95531.66;5012983;28;20196;-76
2022/01/02 09:29:21;;;;;;;3.80;3.40;;;;;;;17.17;61.00;95529.78;5011680;28;20279;-76
2022/01/02 09:31:52;;;;;;;3.93;3.53;;;;;;;17.42;60.52;95538.41;4995708;28;20196;-76
2022/01/02 09:34:23;;;;;;;3.77;3.40;;;;;;;17.58;59.82;95527.28;4995570;28;20304;-76
2022/01/02 09:36:50;;;;;;;4.70;3.73;;;;;;;17.69;59.36;95535.53;5012462;28;20192;-75
2022/01/02 09:39:19;;;;;;;3.67;3.37;;;;;;;17.66;59.16;95501.41;4995427;28;20207;-74
2022/01/02 09:41:47;;;;;;;3.90;3.50;;;;;;;17.55;58.86;95482.66;5012938;28;20200;-77
2022/01/02 09:44:14;;;;;;;4.67;3.50;;;;;;;17.80;58.45;95509.38;5012039;28;20207;-75
2022/01/02 09:46:42;;;;;;;3.80;3.40;;;;;;;17.64;58.32;95488.63;4996012;28;20192;-75
2022/01/02 09:49:11;;;;;;;4.93;3.50;;;;;;;17.71;58.22;95505.16;5012375;28;20193;-78
2022/01/02 09:51:39;;;;;;;4.00;3.60;;;;;;;17.66;58.20;95506.56;5012275;28;20672;-75
2022/01/02 09:54:06;;;;;;;3.40;3.10;;;;;;;17.61;58.19;95495.91;5012333;28;20607;-76
2022/01/02 09:56:33;;;;;;;4.80;3.57;;;;;;;17.43;57.94;95471.00;5012911;28;20192;-76
2022/01/02 09:59:02;;;;;;;3.63;3.33;;;;;;;17.49;57.97;95488.50;5013168;28;20223;-78
2022/01/02 10:01:30;;;;;;;3.30;3.00;;;;;;;17.45;57.85;95491.56;5012422;28;20227;-75
2022/01/02 10:03:58;;;;;;;4.60;3.97;;;;;;;17.27;57.73;95470.97;5012207;28;20588;-76
2022/01/02 10:06:40;;;;;;;4.10;3.63;;;;;;;17.24;57.42;95469.53;4995325;28;20196;-76
2022/01/02 10:09:17;;;;;;;4.83;3.40;;;;;;;17.34;57.55;95491.84;4994598;28;20204;-77
2022/01/02 10:11:47;;;;;;;4.17;3.87;;;;;;;17.29;57.60;95487.97;4980042;28;20199;-80
2022/01/02 10:14:18;;;;;;;3.50;3.20;;;;;;;17.26;57.65;95483.09;5012057;28;20691;-78
2022/01/02 10:16:46;;;;;;;4.10;3.60;;;;;;;17.25;57.82;95478.09;5012014;28;20196;-79
2022/01/02 10:19:29;;;;;;;3.47;3.17;;;;;;;17.17;57.50;95471.13;5012188;28;20193;-79
2022/01/02 10:22:02;;;;;;;3.00;2.80;;;;;;;17.23;57.38;95472.31;5011889;28;20232;-76
2022/01/02 10:24:33;;;;;;;4.60;3.30;;;;;;;17.22;57.38;95473.25;5011988;28;20572;-76
2022/01/02 10:27:09;;;;;;;3.77;3.03;;;;;;;17.16;57.05;95466.13;4995102;28;20556;-76
2022/01/02 10:29:51;;;;;;;3.40;3.10;;;;;;;17.22;57.15;95465.50;5011740;28;20571;-77
2022/01/02 10:32:35;;;;;;;2.97;2.77;;;;;;;16.88;57.01;95406.16;5011503;28;20192;-78
2022/01/02 10:35:14;;;;;;;5.00;2.90;;;;;;;17.23;56.76;95462.75;4994183;28;20220;-78
2022/01/02 10:37:45;;;;;;;3.23;2.93;;;;;;;17.24;56.84;95451.44;5011590;28;20219;-75
2022/01/02 10:40:30;;;;;;;3.00;2.80;;;;;;;17.25;56.68;95450.47;5011876;28;20200;-76
2022/01/02 10:45:44;;;;;;;3.13;2.87;;;;;;;17.28;56.75;95447.56;4996421;28;20868;-76
2022/01/02 10:48:15;;;;;;;4.47;3.20;;;;;;;17.31;56.42;95436.09;5010876;28;20223;-76
2022/01/02 10:50:59;;;;;;;4.57;3.03;;;;;;;17.27;56.45;95427.03;5011461;28;20722;-77
2022/01/02 10:53:37;;;;;;;2.60;2.40;;;;;;;17.34;56.31;95434.97;5011078;28;20616;-77
2022/01/02 10:56:06;;;;;;;2.80;2.60;;;;;;;17.15;56.24;95398.13;5011157;28;20223;-79
2022/01/02 10:58:48;;;;;;;2.93;2.67;;;;;;;17.38;56.15;95428.50;5011148;28;20196;-77
2022/01/02 11:01:18;;;;;;;3.70;3.40;;;;;;;17.40;56.09;95431.72;5010814;28;20204;-77
2022/01/02 11:03:46;;;;;;;4.83;3.80;;;;;;;17.42;55.88;95437.56;5011338;28;20235;-77
2022/01/02 11:06:18;;;;;;;5.17;3.13;;;;;;;17.45;56.05;95434.66;5010992;28;20200;-76
2022/01/02 11:08:51;;;;;;;6.23;3.30;;;;;;;17.47;55.80;95425.75;5011836;28;20199;-76
2022/01/02 11:11:21;;;;;;;4.63;3.13;;;;;;;17.50;55.74;95420.28;5011312;28;20192;-76
2022/01/02 11:13:48;;;;;;;3.20;3.00;;;;;;;17.53;55.66;95429.50;5011897;28;20188;-75
2022/01/02 11:16:18;;;;;;;3.03;2.50;;;;;;;17.31;55.38;95386.97;5010646;28;20224;-77
2022/01/02 11:18:47;;;;;;;4.47;3.30;;;;;;;17.52;55.45;95420.91;4993302;28;20192;-76
2022/01/02 11:21:15;;;;;;;3.40;3.10;;;;;;;17.42;55.52;95391.03;5010960;28;20193;-77
2022/01/02 11:23:54;;;;;;;3.83;2.70;;;;;;;17.42;55.32;95389.25;5010685;28;20196;-79
2022/01/02 11:26:27;;;;;;;3.10;2.63;;;;;;;17.37;55.12;95368.22;5010533;28;20184;-76
2022/01/02 11:28:57;;;;;;;5.33;2.90;;;;;;;17.59;55.20;95400.38;5010833;28;20737;-78
2022/01/02 11:31:33;;;;;;;3.23;2.93;;;;;;;17.61;55.15;95392.44;5010171;28;20207;-75
2022/01/02 11:34:01;;;;;;;3.13;2.87;;;;;;;17.62;55.07;95383.75;4993400;28;20192;-77
2022/01/02 11:36:31;;;;;;;3.20;2.90;;;;;;;17.63;55.15;95387.94;5010570;28;20231;-77
2022/01/02 11:39:05;;;;;;;4.27;2.90;;;;;;;17.63;55.14;95388.75;5010526;28;20199;-76
2022/01/02 11:44:49;;;;;;;3.30;3.00;;;;;;;17.62;55.24;95383.75;5009107;28;20203;-75
2022/01/02 11:47:41;;;;;;;3.57;2.80;;;;;;;17.66;55.20;95396.19;5010459;28;20200;-76
2022/01/02 11:50:44;;;;;;;3.73;2.73;;;;;;;17.65;55.23;95383.38;5011238;28;20196;-77
2022/01/02 11:53:23;;;;;;;3.20;2.90;;;;;;;17.65;55.29;95385.97;5009809;28;20196;-80
2022/01/02 11:55:54;;;;;;;3.10;2.80;;;;;;;17.56;55.35;95370.47;4993199;28;20813;-78
2022/01/02 11:58:51;;;;;;;3.67;3.03;;;;;;;17.61;55.43;95380.31;5010630;28;20226;-78
2022/01/02 12:01:51;;;;;;;3.00;2.70;;;;;;;17.58;55.43;95377.28;5011411;28;20278;-77